Terminal Aerodrome Forecast
Issued by NWS

Home | Current Version | Previous Version | Text Only | Print | Product List | Glossary Off
Versions: 1 2 3 4 5 6 7 8 9 10 11 12 13 14 15 16 17 18

608
FTUS43 KABR 161718 AAA
TAFMBG
TAF AMD
KMBG 161718Z 1617/1712 17009KT P6SM FEW250
     FM162000 28011G20KT P6SM FEW250
     FM162300 28006KT P6SM SKC
     FM171000 22004KT P6SM SKC=

USA.gov is the U.S. government's official web portal to all federal, state and local government web resources and services.